createdAt,value
2018-03-23T00:00:44.436Z,13.20
2018-03-23T00:01:44.452Z,15.10
2018-03-23T00:02:44.468Z,13.20
2018-03-23T00:03:44.484Z,15.90
2018-03-23T00:04:44.502Z,14.10
2018-03-23T00:05:44.520Z,20.30
2018-03-23T00:06:44.535Z,16.40
2018-03-23T00:07:44.551Z,15.40
2018-03-23T00:08:44.568Z,18.00
2018-03-23T00:09:44.586Z,14.20
2018-03-23T00:10:44.601Z,15.60
2018-03-23T00:11:44.618Z,14.70
2018-03-23T00:12:44.634Z,18.30
2018-03-23T00:13:44.652Z,16.70
2018-03-23T00:14:44.667Z,14.90
2018-03-23T00:15:44.690Z,16.00
2018-03-23T00:16:44.712Z,18.20
2018-03-23T00:17:44.718Z,14.10
2018-03-23T00:18:44.737Z,16.10
2018-03-23T00:19:44.751Z,16.60
2018-03-23T00:20:44.767Z,17.60
2018-03-23T00:21:44.785Z,17.50
2018-03-23T00:22:44.801Z,16.30
2018-03-23T00:23:44.818Z,18.20
2018-03-23T00:24:44.834Z,18.20
2018-03-23T00:25:44.851Z,18.30
2018-03-23T00:26:44.867Z,15.80
2018-03-23T00:27:44.883Z,18.70
2018-03-23T00:28:44.900Z,20.40
2018-03-23T00:29:44.917Z,25.50
2018-03-23T00:30:44.933Z,19.50
2018-03-23T00:31:44.950Z,23.30
2018-03-23T00:32:44.967Z,19.80
2018-03-23T00:33:44.984Z,20.00
2018-03-23T00:34:45.000Z,18.80
2018-03-23T00:35:45.017Z,20.10
2018-03-23T00:36:45.034Z,19.90
2018-03-23T00:37:45.051Z,15.90
2018-03-23T00:38:45.068Z,19.20
2018-03-23T00:39:45.084Z,21.40
2018-03-23T00:40:45.101Z,27.10
2018-03-23T00:41:45.118Z,19.80
2018-03-23T00:42:45.134Z,22.60
2018-03-23T00:43:45.152Z,24.00
2018-03-23T00:44:45.167Z,24.30
2018-03-23T00:45:45.184Z,19.80
2018-03-23T00:46:45.201Z,19.80
2018-03-23T00:47:45.218Z,19.90
2018-03-23T00:48:45.238Z,19.10
2018-03-23T00:49:45.251Z,24.90
2018-03-23T00:50:45.268Z,23.80
2018-03-23T00:51:45.285Z,21.70
2018-03-23T00:52:45.301Z,23.90
2018-03-23T00:53:45.318Z,20.30
2018-03-23T00:54:45.334Z,26.70
2018-03-23T00:55:45.354Z,22.00
2018-03-23T00:56:45.369Z,25.60
2018-03-23T00:57:45.385Z,23.70
2018-03-23T00:58:45.401Z,21.20
2018-03-23T00:59:45.418Z,21.30
2018-03-23T01:00:45.436Z,25.40
2018-03-23T01:01:45.452Z,20.60
2018-03-23T01:02:45.469Z,23.50
2018-03-23T01:03:45.485Z,28.50
2018-03-23T01:04:45.502Z,28.20
2018-03-23T01:05:45.520Z,23.40
2018-03-23T01:06:45.536Z,26.70
2018-03-23T01:07:45.552Z,29.80
2018-03-23T01:08:45.571Z,27.10
2018-03-23T01:09:45.589Z,26.00
2018-03-23T01:10:45.603Z,23.60
2018-03-23T01:11:45.620Z,20.20
2018-03-23T01:12:45.637Z,31.20
2018-03-23T01:13:45.654Z,26.80
2018-03-23T01:14:45.670Z,23.10
2018-03-23T01:15:45.687Z,27.70
2018-03-23T01:16:45.708Z,26.40
2018-03-23T01:17:45.721Z,25.50
2018-03-23T01:18:45.737Z,26.10
2018-03-23T01:19:45.755Z,31.00
2018-03-23T01:20:45.784Z,23.30
2018-03-23T01:21:45.796Z,31.70
2018-03-23T01:22:45.806Z,27.50
2018-03-23T01:23:45.823Z,27.30
2018-03-23T01:24:45.841Z,27.20
2018-03-23T01:25:45.857Z,28.70
2018-03-23T01:26:45.873Z,25.80
2018-03-23T01:27:45.891Z,23.60
2018-03-23T01:28:45.909Z,33.60
2018-03-23T01:29:45.925Z,28.90
2018-03-23T01:30:45.942Z,29.20
2018-03-23T01:31:45.959Z,32.40
2018-03-23T01:32:45.980Z,31.40
2018-03-23T01:33:45.994Z,26.60
2018-03-23T01:34:46.010Z,31.00
2018-03-23T01:35:46.027Z,33.70
2018-03-23T01:36:46.043Z,27.90
2018-03-23T01:37:46.063Z,33.80
2018-03-23T01:38:46.078Z,32.10
2018-03-23T01:39:46.095Z,33.00
2018-03-23T01:40:46.112Z,28.60
2018-03-23T01:41:46.129Z,31.20
2018-03-23T01:42:46.146Z,27.40
2018-03-23T01:43:46.162Z,30.40
2018-03-23T01:44:46.180Z,33.20
2018-03-23T01:45:46.197Z,32.80
2018-03-23T01:46:46.213Z,32.90
2018-03-23T01:47:46.230Z,24.20
2018-03-23T01:48:46.248Z,33.10
2018-03-23T01:49:46.265Z,35.10
2018-03-23T01:50:46.281Z,31.40
2018-03-23T01:51:46.298Z,31.60
2018-03-23T01:52:46.315Z,32.10
2018-03-23T01:53:46.332Z,30.00
2018-03-23T01:54:46.349Z,31.60
2018-03-23T01:55:46.366Z,32.70
2018-03-23T01:56:46.383Z,33.70
2018-03-23T01:57:46.399Z,35.70
2018-03-23T01:58:46.416Z,41.00
2018-03-23T01:59:46.433Z,34.40
2018-03-23T02:00:46.450Z,38.20
2018-03-23T02:01:46.467Z,29.60
2018-03-23T02:02:46.484Z,36.60
2018-03-23T02:03:46.500Z,33.50
2018-03-23T02:04:46.517Z,36.80
2018-03-23T02:05:46.534Z,30.90
2018-03-23T02:06:46.549Z,35.10
2018-03-23T02:07:46.567Z,31.50
2018-03-23T02:08:46.585Z,35.30
2018-03-23T02:09:46.601Z,31.70
2018-03-23T02:10:46.624Z,33.80
2018-03-23T02:11:46.688Z,31.90
2018-03-23T02:12:46.652Z,31.70
2018-03-23T02:13:46.668Z,31.80
2018-03-23T02:14:46.683Z,33.70
2018-03-23T02:15:46.700Z,31.30
2018-03-23T02:16:46.718Z,32.00
2018-03-23T02:17:46.734Z,32.00
2018-03-23T02:18:46.751Z,34.50
2018-03-23T02:19:46.768Z,30.30
2018-03-23T02:20:46.784Z,36.60
2018-03-23T02:21:46.801Z,31.30
2018-03-23T02:22:46.817Z,36.00
2018-03-23T02:23:46.834Z,34.40
2018-03-23T02:24:46.951Z,34.20
2018-03-23T02:25:46.873Z,32.70
2018-03-23T02:26:46.884Z,32.40
2018-03-23T02:27:46.901Z,35.40
2018-03-23T02:28:46.916Z,33.80
2018-03-23T02:29:46.941Z,38.60
2018-03-23T02:30:46.951Z,34.50
2018-03-23T02:31:46.969Z,31.50
2018-03-23T02:32:46.986Z,35.50
2018-03-23T02:33:47.002Z,36.30
2018-03-23T02:34:47.016Z,41.10
2018-03-23T02:35:47.033Z,44.00
2018-03-23T02:36:47.051Z,36.70
2018-03-23T02:37:47.068Z,44.20
2018-03-23T02:38:47.083Z,41.20
2018-03-23T02:39:47.102Z,42.50
2018-03-23T02:40:47.119Z,38.80
2018-03-23T02:41:47.133Z,41.60
2018-03-23T02:42:47.148Z,43.10
2018-03-23T02:43:47.165Z,49.00
2018-03-23T02:44:47.183Z,43.90
2018-03-23T02:45:47.201Z,43.80
2018-03-23T02:46:47.214Z,37.90
2018-03-23T02:47:47.232Z,43.00
2018-03-23T02:48:47.249Z,39.90
2018-03-23T02:49:47.265Z,36.80
2018-03-23T02:50:47.281Z,42.10
2018-03-23T02:51:47.297Z,46.10
2018-03-23T02:52:47.313Z,44.60
2018-03-23T02:53:47.331Z,44.70
2018-03-23T02:54:47.344Z,42.70
2018-03-23T02:55:47.362Z,41.40
2018-03-23T02:56:47.379Z,41.70
2018-03-23T02:57:47.395Z,41.50
2018-03-23T02:58:47.412Z,45.30
2018-03-23T02:59:47.426Z,45.20
2018-03-23T03:00:47.443Z,47.30
2018-03-23T03:01:47.460Z,44.10
2018-03-23T03:02:47.475Z,48.30
2018-03-23T03:03:47.492Z,43.50
2018-03-23T03:04:47.510Z,46.30
2018-03-23T03:05:47.526Z,46.20
2018-03-23T03:06:47.541Z,43.40
2018-03-23T03:07:47.556Z,44.70
2018-03-23T03:08:47.574Z,42.70
2018-03-23T03:09:47.591Z,49.00
2018-03-23T03:10:47.605Z,46.60
2018-03-23T03:11:47.623Z,47.50
2018-03-23T03:12:47.642Z,48.60
2018-03-23T03:13:47.656Z,50.80
2018-03-23T03:14:47.673Z,48.90
2018-03-23T03:15:47.689Z,47.20
2018-03-23T03:16:47.705Z,44.90
2018-03-23T03:17:47.722Z,48.10
2018-03-23T03:18:47.737Z,50.50
2018-03-23T03:19:47.755Z,50.20
2018-03-23T03:20:47.770Z,56.10
2018-03-23T03:21:47.786Z,42.40
2018-03-23T03:22:47.805Z,49.90
2018-03-23T03:23:47.818Z,49.60
2018-03-23T03:24:47.835Z,49.10
2018-03-23T03:25:47.852Z,46.10
2018-03-23T03:26:47.868Z,42.40
2018-03-23T03:27:47.884Z,54.80
2018-03-23T03:28:47.901Z,50.80
2018-03-23T03:29:47.917Z,56.00
2018-03-23T03:30:47.935Z,47.10
2018-03-23T03:31:47.950Z,49.10
2018-03-23T03:32:47.967Z,52.30
2018-03-23T03:33:47.982Z,52.60
2018-03-23T03:34:48.002Z,54.90
2018-03-23T03:35:48.014Z,51.50
2018-03-23T03:36:48.032Z,54.10
2018-03-23T03:37:48.049Z,53.10
2018-03-23T03:38:48.064Z,53.00
2018-03-23T03:39:48.081Z,49.90
2018-03-23T03:40:48.097Z,54.00
2018-03-23T03:41:48.114Z,52.90
2018-03-23T03:42:48.130Z,54.30
2018-03-23T03:43:48.147Z,51.20
2018-03-23T03:44:48.163Z,52.50
2018-03-23T03:45:48.180Z,55.10
2018-03-23T03:46:48.197Z,51.20
2018-03-23T03:47:48.212Z,49.70
2018-03-23T03:48:48.229Z,56.40
2018-03-23T03:49:48.246Z,49.90
2018-03-23T03:50:48.261Z,51.50
2018-03-23T03:51:48.278Z,51.40
2018-03-23T03:52:48.295Z,51.20
2018-03-23T03:53:48.311Z,55.50
2018-03-23T03:54:48.327Z,53.50
2018-03-23T03:55:48.345Z,56.70
2018-03-23T03:56:48.362Z,53.50
2018-03-23T03:57:48.382Z,54.00
2018-03-23T03:58:48.393Z,50.10
2018-03-23T03:59:48.410Z,55.10
2018-03-23T04:00:48.427Z,49.10
2018-03-23T04:01:48.444Z,52.50
2018-03-23T04:02:48.465Z,51.80
2018-03-23T04:03:48.477Z,54.30
2018-03-23T04:04:48.493Z,55.20
2018-03-23T04:05:48.510Z,58.30
2018-03-23T04:06:48.526Z,51.10
2018-03-23T04:07:48.543Z,56.80
2018-03-23T04:08:48.560Z,59.60
2018-03-23T04:09:48.576Z,54.80
2018-03-23T04:10:48.592Z,53.30
2018-03-23T04:11:48.609Z,57.10
2018-03-23T04:12:48.626Z,53.30
2018-03-23T04:13:48.643Z,46.00
2018-03-23T04:14:48.658Z,52.80
2018-03-23T04:15:48.673Z,54.90
2018-03-23T04:16:48.692Z,55.50
2018-03-23T04:17:48.708Z,56.30
2018-03-23T04:18:48.723Z,57.90
2018-03-23T04:19:48.741Z,55.20
2018-03-23T04:20:48.758Z,58.90
2018-03-23T04:21:48.774Z,55.00
2018-03-23T04:22:48.791Z,49.70
2018-03-23T04:23:48.807Z,51.70
2018-03-23T04:24:48.827Z,51.60
2018-03-23T04:25:48.839Z,55.40
2018-03-23T04:26:48.856Z,59.20
2018-03-23T04:27:48.889Z,54.80
2018-03-23T04:28:48.890Z,55.50
2018-03-23T04:29:48.906Z,52.00
2018-03-23T04:30:48.922Z,54.70
2018-03-23T04:31:48.939Z,51.60
2018-03-23T04:32:48.956Z,54.60
2018-03-23T04:33:48.976Z,57.20
2018-03-23T04:34:48.989Z,52.80
2018-03-23T04:35:49.006Z,59.10
2018-03-23T04:36:49.021Z,53.80
2018-03-23T04:37:49.039Z,51.40
2018-03-23T04:38:49.056Z,51.20
2018-03-23T04:39:49.073Z,58.50
2018-03-23T04:40:49.089Z,57.60
2018-03-23T04:41:49.107Z,54.70
2018-03-23T04:42:49.122Z,57.20
2018-03-23T04:43:49.138Z,54.00
2018-03-23T04:44:49.158Z,60.30
2018-03-23T04:45:49.173Z,56.90
2018-03-23T04:46:49.189Z,52.40
2018-03-23T04:47:49.206Z,60.00
2018-03-23T04:48:49.223Z,57.40
2018-03-23T04:49:49.239Z,56.00
2018-03-23T04:50:49.259Z,62.30
2018-03-23T04:51:49.273Z,61.20
2018-03-23T04:52:49.292Z,58.20
2018-03-23T04:53:49.312Z,67.30
2018-03-23T04:54:49.324Z,62.00
2018-03-23T04:55:49.339Z,62.90
2018-03-23T04:56:49.357Z,69.60
2018-03-23T04:57:49.375Z,65.60
2018-03-23T04:58:49.391Z,69.50
2018-03-23T04:59:49.408Z,65.10
2018-03-23T05:00:49.423Z,72.00
2018-03-23T05:01:49.441Z,72.10
2018-03-23T05:02:49.457Z,76.80
2018-03-23T05:03:49.475Z,77.00
2018-03-23T05:04:49.492Z,82.00
2018-03-23T05:05:49.508Z,84.10
2018-03-23T05:06:49.525Z,81.30
2018-03-23T05:07:49.542Z,83.30
2018-03-23T05:08:49.559Z,85.20
2018-03-23T05:09:49.576Z,78.20
2018-03-23T05:10:49.591Z,83.90
2018-03-23T05:11:49.608Z,86.70
2018-03-23T05:12:49.626Z,83.00
2018-03-23T05:13:49.642Z,86.10
2018-03-23T05:14:49.659Z,93.50
2018-03-23T05:15:49.675Z,100.70
2018-03-23T05:16:49.694Z,99.70
2018-03-23T05:17:49.710Z,96.30
2018-03-23T05:18:49.726Z,103.00
2018-03-23T05:19:49.744Z,95.20
2018-03-23T05:20:49.764Z,104.70
2018-03-23T05:21:49.778Z,102.00
2018-03-23T05:22:49.793Z,107.40
2018-03-23T05:23:49.810Z,112.60
2018-03-23T05:24:49.869Z,108.90
2018-03-23T05:25:49.844Z,116.00
2018-03-23T05:26:49.859Z,110.70
2018-03-23T05:27:49.877Z,108.70
2018-03-23T05:28:49.895Z,118.90
2018-03-23T05:29:49.912Z,114.30
2018-03-23T05:30:49.928Z,102.80
2018-03-23T05:31:49.944Z,111.70
2018-03-23T05:32:49.962Z,118.60
2018-03-23T05:33:49.978Z,110.00
2018-03-23T05:34:49.994Z,116.90
2018-03-23T05:35:50.011Z,105.40
2018-03-23T05:36:50.029Z,115.10
2018-03-23T05:37:50.045Z,122.90
2018-03-23T05:38:50.062Z,101.30
2018-03-23T05:39:50.078Z,105.30
2018-03-23T05:40:50.096Z,101.80
2018-03-23T05:41:50.119Z,115.10
2018-03-23T05:42:50.129Z,96.60
2018-03-23T05:43:50.148Z,104.10
2018-03-23T05:44:50.162Z,111.30
2018-03-23T05:45:50.180Z,105.90
2018-03-23T05:46:50.196Z,101.20
2018-03-23T05:47:50.215Z,97.30
2018-03-23T05:48:50.230Z,103.10
2018-03-23T05:49:50.246Z,102.30
2018-03-23T05:50:50.263Z,94.80
2018-03-23T05:51:50.304Z,104.20
2018-03-23T05:52:50.297Z,102.30
2018-03-23T05:53:50.314Z,98.30
2018-03-23T05:54:50.333Z,106.60
2018-03-23T05:55:50.346Z,96.40
2018-03-23T05:56:50.364Z,109.90
2018-03-23T05:57:50.381Z,112.00
2018-03-23T05:58:50.398Z,117.20
2018-03-23T05:59:50.416Z,114.00
2018-03-23T06:00:50.431Z,109.30
2018-03-23T06:01:50.449Z,117.20
2018-03-23T06:02:50.465Z,117.20
2018-03-23T06:03:50.482Z,130.80
2018-03-23T06:04:50.505Z,124.20
2018-03-23T06:05:50.515Z,123.30
2018-03-23T06:06:50.533Z,122.90
2018-03-23T06:07:50.549Z,141.40
2018-03-23T06:08:50.569Z,134.20
2018-03-23T06:09:50.584Z,153.40
2018-03-23T06:10:50.601Z,151.60
2018-03-23T06:11:50.616Z,159.20
2018-03-23T06:12:50.634Z,144.90
2018-03-23T06:13:50.653Z,160.50
2018-03-23T06:14:50.668Z,151.50
2018-03-23T06:15:50.686Z,143.30
2018-03-23T06:16:50.703Z,179.00
2018-03-23T06:17:50.719Z,146.30
2018-03-23T06:18:50.734Z,166.00
2018-03-23T06:19:50.752Z,170.20
2018-03-23T06:20:50.769Z,173.70
2018-03-23T06:21:50.785Z,182.50
2018-03-23T06:22:50.840Z,187.90
2018-03-23T06:23:50.821Z,177.70
2018-03-23T06:24:50.836Z,182.10
2018-03-23T06:25:50.854Z,197.30
2018-03-23T06:26:50.870Z,190.00
2018-03-23T06:27:50.887Z,178.10
2018-03-23T06:28:50.904Z,190.90
2018-03-23T06:29:50.921Z,176.10
2018-03-23T06:30:50.938Z,216.40
2018-03-23T06:31:50.954Z,183.90
2018-03-23T06:32:50.972Z,216.40
2018-03-23T06:33:50.988Z,197.50
2018-03-23T06:34:51.005Z,201.70
2018-03-23T06:35:51.022Z,199.50
2018-03-23T06:36:51.039Z,223.90
2018-03-23T06:37:51.056Z,221.20
2018-03-23T06:38:51.072Z,213.70
2018-03-23T06:39:51.088Z,212.90
2018-03-23T06:40:51.106Z,207.90
2018-03-23T06:41:51.123Z,187.50
2018-03-23T06:42:51.139Z,216.60
2018-03-23T06:43:51.157Z,218.70
2018-03-23T06:44:51.174Z,269.20
2018-03-23T06:45:51.191Z,204.70
2018-03-23T06:46:51.206Z,225.90
2018-03-23T06:47:51.223Z,184.40
2018-03-23T06:48:51.242Z,197.60
2018-03-23T06:49:51.258Z,193.30
2018-03-23T06:50:51.275Z,224.00
2018-03-23T06:51:51.292Z,215.40
2018-03-23T06:52:51.309Z,207.80
2018-03-23T06:53:51.326Z,233.60
2018-03-23T06:54:51.342Z,229.30
2018-03-23T06:55:51.360Z,240.60
2018-03-23T06:56:51.376Z,221.00
2018-03-23T06:57:51.394Z,203.90
2018-03-23T06:58:51.611Z,201.00
2018-03-23T06:59:51.427Z,227.60
2018-03-23T07:00:51.445Z,222.00
2018-03-23T07:01:51.499Z,229.00
2018-03-23T07:02:51.477Z,224.90
2018-03-23T07:03:51.496Z,210.60
2018-03-23T07:04:51.513Z,212.40
2018-03-23T07:05:51.529Z,202.50
2018-03-23T07:06:51.546Z,189.60
2018-03-23T07:07:51.563Z,200.30
2018-03-23T07:08:51.579Z,190.00
2018-03-23T07:09:51.598Z,196.00
2018-03-23T07:10:51.614Z,175.10
2018-03-23T07:11:51.631Z,182.70
2018-03-23T07:12:51.648Z,198.80
2018-03-23T07:13:51.665Z,182.80
2018-03-23T07:14:51.682Z,175.30
2018-03-23T07:15:51.700Z,181.60
2018-03-23T07:16:51.717Z,174.10
2018-03-23T07:17:51.734Z,172.10
2018-03-23T07:18:51.750Z,170.40
2018-03-23T07:19:51.768Z,168.90
2018-03-23T07:20:51.785Z,172.20
2018-03-23T07:21:51.801Z,172.60
2018-03-23T07:22:51.818Z,160.60
2018-03-23T07:23:51.836Z,149.10
2018-03-23T07:24:51.853Z,143.90
2018-03-23T07:25:51.875Z,140.30
2018-03-23T07:26:51.887Z,150.70
2018-03-23T07:27:51.904Z,151.10
2018-03-23T07:28:51.921Z,146.50
2018-03-23T07:29:51.938Z,145.20
2018-03-23T07:30:51.955Z,147.50
2018-03-23T07:31:51.971Z,140.70
2018-03-23T07:32:51.989Z,142.60
2018-03-23T07:33:52.007Z,139.70
2018-03-23T07:34:52.023Z,145.80
2018-03-23T07:35:52.041Z,143.90
2018-03-23T07:36:52.057Z,132.50
2018-03-23T07:37:52.074Z,139.50
2018-03-23T07:38:52.090Z,139.40
2018-03-23T07:39:52.106Z,132.80
2018-03-23T07:40:52.125Z,134.50
2018-03-23T07:41:52.143Z,137.30
2018-03-23T07:42:52.159Z,130.00
2018-03-23T07:43:52.181Z,126.90
2018-03-23T07:44:52.195Z,126.70
2018-03-23T07:45:52.211Z,124.20
2018-03-23T07:46:52.227Z,120.50
2018-03-23T07:47:52.246Z,122.20
2018-03-23T07:48:52.262Z,122.10
2018-03-23T07:49:52.282Z,120.60
2018-03-23T07:50:52.295Z,123.00
2018-03-23T07:51:52.313Z,121.70
2018-03-23T07:52:52.332Z,125.20
2018-03-23T07:53:52.348Z,223.50
2018-03-23T07:54:52.363Z,122.80
2018-03-23T07:55:52.381Z,113.30
2018-03-23T07:56:52.398Z,103.40
2018-03-23T07:57:52.415Z,98.00
2018-03-23T07:58:52.432Z,105.70
2018-03-23T07:59:52.459Z,103.00
2018-03-23T08:00:52.467Z,111.10
2018-03-23T08:01:52.483Z,102.20
2018-03-23T08:02:52.500Z,99.50
2018-03-23T08:03:52.518Z,104.20
2018-03-23T08:04:52.535Z,100.20
2018-03-23T08:05:52.555Z,98.00
2018-03-23T08:06:52.577Z,106.50
2018-03-23T08:07:52.586Z,99.90
2018-03-23T08:08:52.606Z,89.00
2018-03-23T08:09:52.622Z,98.90
2018-03-23T08:10:52.638Z,106.30
2018-03-23T08:11:52.656Z,94.10
2018-03-23T08:12:52.673Z,102.60
2018-03-23T08:13:52.690Z,98.80
2018-03-23T08:14:52.707Z,96.20
2018-03-23T08:15:52.724Z,97.40
2018-03-23T08:16:52.745Z,100.00
2018-03-23T08:17:52.763Z,106.20
2018-03-23T08:18:52.775Z,91.50
2018-03-23T08:19:52.795Z,97.90
2018-03-23T08:20:52.810Z,102.40
2018-03-23T08:21:52.828Z,100.70
2018-03-23T08:22:52.844Z,93.00
2018-03-23T08:23:52.862Z,91.90
2018-03-23T08:24:52.879Z,95.40
2018-03-23T08:25:52.897Z,94.50
2018-03-23T08:26:52.913Z,96.70
2018-03-23T08:27:52.933Z,102.20
2018-03-23T08:28:52.948Z,100.60
2018-03-23T08:29:52.969Z,94.60
2018-03-23T08:30:52.982Z,95.20
2018-03-23T08:31:52.999Z,94.10
2018-03-23T08:32:53.022Z,94.70
2018-03-23T08:33:53.035Z,98.50
2018-03-23T08:34:53.052Z,103.20
2018-03-23T08:35:53.069Z,93.30
2018-03-23T08:36:53.140Z,94.20
2018-03-23T08:37:53.105Z,94.60
2018-03-23T08:38:53.121Z,96.10
2018-03-23T08:39:53.138Z,97.40
2018-03-23T08:40:53.156Z,93.10
2018-03-23T08:41:53.174Z,90.90
2018-03-23T08:42:53.191Z,89.00
2018-03-23T08:43:53.226Z,82.80
2018-03-23T08:44:53.246Z,94.20
2018-03-23T08:45:53.247Z,88.60
2018-03-23T08:46:53.261Z,84.30
2018-03-23T08:47:53.279Z,86.80
2018-03-23T08:48:53.296Z,83.00
2018-03-23T08:49:53.314Z,79.40
2018-03-23T08:50:53.330Z,81.60
2018-03-23T08:51:53.349Z,80.60
2018-03-23T08:52:53.366Z,76.80
2018-03-23T08:53:53.383Z,76.50
2018-03-23T08:54:53.400Z,76.80
2018-03-23T08:55:53.418Z,66.40
2018-03-23T08:56:53.443Z,65.40
2018-03-23T08:57:53.453Z,67.30
2018-03-23T08:58:53.470Z,69.20
2018-03-23T08:59:53.488Z,64.60
2018-03-23T09:00:53.507Z,66.70
2018-03-23T09:01:53.526Z,70.50
2018-03-23T09:02:53.541Z,67.60
2018-03-23T09:03:53.558Z,64.10
2018-03-23T09:04:53.576Z,62.80
2018-03-23T09:05:53.594Z,66.70
2018-03-23T09:06:53.610Z,63.80
2018-03-23T09:07:53.629Z,70.50
2018-03-23T09:08:53.646Z,62.30
2018-03-23T09:09:53.664Z,68.20
2018-03-23T09:10:53.682Z,62.40
2018-03-23T09:11:53.702Z,64.50
2018-03-23T09:12:53.745Z,67.10
2018-03-23T09:13:53.735Z,65.50
2018-03-23T09:14:53.752Z,64.70
2018-03-23T09:15:53.773Z,64.60
2018-03-23T09:16:53.789Z,63.60
2018-03-23T09:17:53.811Z,61.00
2018-03-23T09:18:53.824Z,66.00
2018-03-23T09:19:53.840Z,64.30
2018-03-23T09:20:53.859Z,64.00
2018-03-23T09:21:53.926Z,67.70
2018-03-23T09:22:53.896Z,71.10
2018-03-23T09:23:53.912Z,67.70
2018-03-23T09:24:53.930Z,68.80
2018-03-23T09:25:53.948Z,69.80
2018-03-23T09:26:53.977Z,68.90
2018-03-23T09:27:53.984Z,66.40
2018-03-23T09:28:54.001Z,66.80
2018-03-23T09:29:54.019Z,70.40
2018-03-23T09:30:54.045Z,64.50
2018-03-23T09:31:54.055Z,65.70
2018-03-23T09:32:54.073Z,63.40
2018-03-23T09:33:54.091Z,61.70
2018-03-23T09:34:54.108Z,62.90
2018-03-23T09:35:54.127Z,62.70
2018-03-23T09:36:54.144Z,74.30
2018-03-23T09:37:54.163Z,80.70
2018-03-23T09:38:54.182Z,57.10
2018-03-23T09:39:54.200Z,64.60
2018-03-23T09:40:54.217Z,58.10
2018-03-23T09:41:54.236Z,57.60
2018-03-23T09:42:54.253Z,48.00
2018-03-23T09:43:54.272Z,76.80
2018-03-23T09:44:54.290Z,55.30
2018-03-23T09:45:54.308Z,58.00
2018-03-23T09:46:54.327Z,52.30
2018-03-23T09:47:54.344Z,54.10
2018-03-23T09:48:54.363Z,57.90
2018-03-23T09:49:54.382Z,49.90
2018-03-23T09:50:54.400Z,52.90
2018-03-23T09:51:54.422Z,57.30
2018-03-23T09:52:54.438Z,51.80
2018-03-23T09:53:54.556Z,48.00
2018-03-23T09:54:54.474Z,54.80
2018-03-23T09:55:54.492Z,55.70
2018-03-23T09:56:54.511Z,51.70
2018-03-23T09:57:54.529Z,51.10
2018-03-23T09:58:54.547Z,45.40
2018-03-23T09:59:54.566Z,51.40
2018-03-23T10:00:54.583Z,44.70
2018-03-23T10:01:54.603Z,46.20
2018-03-23T10:02:54.621Z,47.30
2018-03-23T10:03:54.741Z,46.50
2018-03-23T10:04:54.658Z,49.40
2018-03-23T10:05:54.682Z,45.50
2018-03-23T10:06:54.695Z,46.90
2018-03-23T10:07:54.712Z,43.60
2018-03-23T10:08:54.733Z,44.60
2018-03-23T10:09:54.793Z,42.90
2018-03-23T10:10:54.768Z,46.50
2018-03-23T10:11:54.792Z,45.90
2018-03-23T10:12:54.805Z,45.20
2018-03-23T10:13:54.825Z,46.30
2018-03-23T10:14:54.840Z,50.40
2018-03-23T10:15:54.859Z,43.10
2018-03-23T10:16:54.878Z,41.20
2018-03-23T10:17:54.896Z,42.30
2018-03-23T10:18:54.917Z,41.20
2018-03-23T10:19:54.932Z,41.80
2018-03-23T10:20:55.003Z,43.80
2018-03-23T10:21:54.969Z,39.70
2018-03-23T10:22:54.986Z,41.70
2018-03-23T10:23:55.005Z,38.50
2018-03-23T10:24:55.024Z,47.40
2018-03-23T10:25:55.043Z,38.90
2018-03-23T10:26:55.059Z,42.00
2018-03-23T10:27:55.078Z,37.60
2018-03-23T10:28:55.100Z,37.70
2018-03-23T10:29:55.115Z,39.10
2018-03-23T10:30:55.133Z,39.50
2018-03-23T10:31:55.152Z,35.60
2018-03-23T10:32:55.170Z,37.60
2018-03-23T10:33:55.189Z,41.30
2018-03-23T10:34:55.207Z,37.70
2018-03-23T10:35:55.225Z,38.10
2018-03-23T10:36:55.243Z,36.90
2018-03-23T10:37:55.263Z,38.00
2018-03-23T10:38:55.280Z,36.60
2018-03-23T10:39:55.299Z,33.00
2018-03-23T10:40:55.318Z,35.30
2018-03-23T10:41:55.336Z,37.20
2018-03-23T10:42:55.355Z,38.00
2018-03-23T10:43:55.374Z,34.30
2018-03-23T10:44:55.394Z,32.80
2018-03-23T10:45:55.412Z,30.30
2018-03-23T10:46:55.430Z,37.50
2018-03-23T10:47:55.449Z,36.00
2018-03-23T10:48:55.468Z,30.10
2018-03-23T10:49:55.487Z,32.40
2018-03-23T10:50:55.506Z,32.80
2018-03-23T10:51:55.523Z,29.20
2018-03-23T10:52:55.547Z,33.00
2018-03-23T10:53:55.563Z,32.60
2018-03-23T10:54:55.582Z,30.40
2018-03-23T10:55:55.604Z,34.30
2018-03-23T10:56:55.630Z,31.80
2018-03-23T10:57:55.638Z,30.80
2018-03-23T10:58:55.656Z,32.70
2018-03-23T10:59:55.676Z,30.70
2018-03-23T11:00:55.693Z,29.20
2018-03-23T11:01:55.714Z,32.90
2018-03-23T11:02:55.731Z,32.30
2018-03-23T11:03:55.751Z,31.80
2018-03-23T11:04:55.769Z,29.90
2018-03-23T11:05:55.789Z,29.60
2018-03-23T11:06:55.807Z,30.70
2018-03-23T11:07:55.826Z,28.80
2018-03-23T11:08:55.845Z,30.10
2018-03-23T11:09:55.864Z,27.20
2018-03-23T11:10:55.883Z,28.00
2018-03-23T11:11:55.902Z,35.40
2018-03-23T11:12:55.921Z,29.30
2018-03-23T11:13:55.941Z,25.60
2018-03-23T11:14:55.960Z,30.20
2018-03-23T11:15:55.979Z,35.60
2018-03-23T11:16:55.999Z,30.40
2018-03-23T11:17:56.021Z,30.30
2018-03-23T11:18:56.041Z,27.70
2018-03-23T11:19:56.056Z,29.30
2018-03-23T11:20:56.077Z,41.50
2018-03-23T11:21:56.096Z,38.00
2018-03-23T11:22:56.115Z,28.50
2018-03-23T11:23:56.133Z,33.70
2018-03-23T11:24:56.154Z,39.60
2018-03-23T11:25:56.173Z,29.50
2018-03-23T11:26:56.191Z,30.60
2018-03-23T11:27:56.211Z,29.20
2018-03-23T11:28:56.231Z,28.60
2018-03-23T11:29:56.252Z,36.90
2018-03-23T11:30:56.273Z,29.80
2018-03-23T11:31:56.291Z,26.10
2018-03-23T11:32:56.309Z,29.40
2018-03-23T11:33:56.330Z,27.30
2018-03-23T11:34:56.349Z,32.50
2018-03-23T11:35:56.370Z,32.90
2018-03-23T11:36:56.395Z,35.00
2018-03-23T11:37:56.413Z,32.30
2018-03-23T11:38:56.428Z,50.90
2018-03-23T11:39:56.447Z,32.80
2018-03-23T11:40:56.467Z,32.00
2018-03-23T11:41:56.487Z,42.30
2018-03-23T11:42:56.507Z,41.60
2018-03-23T11:43:56.527Z,42.00
2018-03-23T11:44:56.548Z,37.20
2018-03-23T11:45:56.564Z,34.00
2018-03-23T11:46:56.583Z,38.30
2018-03-23T11:47:56.603Z,36.70
2018-03-23T11:48:56.622Z,32.70
2018-03-23T11:49:56.642Z,35.90
2018-03-23T11:50:56.660Z,39.20
2018-03-23T11:51:56.680Z,38.60
2018-03-23T11:52:56.703Z,37.50
2018-03-23T11:53:56.719Z,42.30
2018-03-23T11:54:56.736Z,37.10
2018-03-23T11:55:56.756Z,37.40
2018-03-23T11:56:56.775Z,41.60
2018-03-23T11:57:56.795Z,41.00
2018-03-23T11:58:56.814Z,44.90
2018-03-23T11:59:56.832Z,44.00
2018-03-23T12:00:56.853Z,44.70
2018-03-23T12:01:56.872Z,47.10
2018-03-23T12:02:56.890Z,52.00
2018-03-23T12:03:56.908Z,44.50
2018-03-23T12:04:56.927Z,57.60
2018-03-23T12:05:56.947Z,54.10
2018-03-23T12:06:56.965Z,52.80
2018-03-23T12:07:56.985Z,49.50
2018-03-23T12:08:57.004Z,56.20
2018-03-23T12:09:57.024Z,54.20
2018-03-23T12:10:57.041Z,52.00
2018-03-23T12:11:57.060Z,51.70
2018-03-23T12:12:57.080Z,65.80
2018-03-23T12:13:57.099Z,59.90
2018-03-23T12:14:57.117Z,50.40
2018-03-23T12:15:57.137Z,49.10
2018-03-23T12:16:57.156Z,49.80
2018-03-23T12:17:57.176Z,49.70
2018-03-23T12:18:57.194Z,46.10
2018-03-23T12:19:57.212Z,46.20
2018-03-23T12:20:57.232Z,52.30
2018-03-23T12:21:57.253Z,48.70
2018-03-23T12:22:57.273Z,49.10
2018-03-23T12:23:57.293Z,46.30
2018-03-23T12:24:57.310Z,48.50
2018-03-23T12:25:57.329Z,45.10
2018-03-23T12:26:57.349Z,43.50
2018-03-23T12:27:57.368Z,43.20
2018-03-23T12:28:57.387Z,49.70
2018-03-23T12:29:57.406Z,51.80
2018-03-23T12:30:57.426Z,51.00
2018-03-23T12:31:57.498Z,47.10
2018-03-23T12:32:57.465Z,47.50
2018-03-23T12:33:57.483Z,44.20
2018-03-23T12:34:57.531Z,42.60
2018-03-23T12:35:57.521Z,39.90
2018-03-23T12:36:57.544Z,36.80
2018-03-23T12:37:57.577Z,36.70
2018-03-23T12:38:57.579Z,43.80
2018-03-23T12:39:57.599Z,43.00
2018-03-23T12:40:57.618Z,51.30
2018-03-23T12:41:57.637Z,46.30
2018-03-23T12:42:57.660Z,43.00
2018-03-23T12:43:57.675Z,37.90
2018-03-23T12:44:57.695Z,41.70
2018-03-23T12:45:57.715Z,41.10
2018-03-23T12:46:57.731Z,44.20
2018-03-23T12:47:57.750Z,50.60